Time;durP1;ratioP1;P1;durP2;ratioP2;P2;SDS_P1;SDS_P2;PMS_P1;PMS_P2;Temp;Humidity;BMP_temperature;BMP_pressure;BME280_temperature;BME280_humidity;BME280_pressure;Samples;Min_cycle;Max_cycle;Signal;HPM_P1;HPM_P2
2021/09/06 00:04:22;;;;;;;13.33;7.80;;;;;;;6.10;73.67;100935.50;255870;1101;116273;-66
2021/09/06 00:09:25;;;;;;;15.68;9.75;;;;;;;6.05;73.62;100928.08;255596;1101;115393;-64
2021/09/06 00:14:29;;;;;;;14.25;8.65;;;;;;;6.05;73.99;100931.55;255487;1104;115978;-66
2021/09/06 00:19:32;;;;;;;14.10;7.65;;;;;;;6.05;73.14;100938.67;255538;1104;114974;-65
2021/09/06 00:24:35;;;;;;;14.18;8.95;;;;;;;6.04;74.22;100934.38;257265;1101;115361;-65
2021/09/06 00:29:39;;;;;;;11.60;8.68;;;;;;;6.02;73.65;100942.48;257474;1101;115527;-65
2021/09/06 00:34:43;;;;;;;11.05;7.95;;;;;;;6.00;73.78;100939.19;254956;1096;115211;-67
2021/09/06 00:39:46;;;;;;;6.43;5.10;;;;;;;5.92;73.61;100941.06;255586;1104;116370;-65
2021/09/06 00:44:50;;;;;;;8.30;6.25;;;;;;;5.85;73.87;100940.89;255525;1101;116326;-64
2021/09/06 00:49:54;;;;;;;11.98;7.10;;;;;;;5.81;73.79;100941.45;254960;1102;116000;-66
2021/09/06 00:54:59;;;;;;;9.65;6.23;;;;;;;5.79;74.20;100941.62;255932;1101;115779;-65
2021/09/06 01:00:08;;;;;;;8.07;5.70;;;;;;;5.77;74.28;100937.49;254817;1101;115581;-64
2021/09/06 01:05:13;;;;;;;12.33;7.80;;;;;;;5.72;73.91;100936.19;255236;1101;114763;-67
2021/09/06 01:10:16;;;;;;;6.30;4.98;;;;;;;5.62;74.59;100935.57;254342;1101;114896;-67
2021/09/06 01:15:19;;;;;;;13.50;6.80;;;;;;;5.61;74.67;100935.74;254739;1101;115460;-65
2021/09/06 01:20:22;;;;;;;7.98;6.10;;;;;;;5.64;74.92;100930.11;254898;1101;117112;-68
2021/09/06 01:25:25;;;;;;;8.68;5.55;;;;;;;5.65;74.68;100939.70;254402;1101;114900;-66
2021/09/06 01:30:28;;;;;;;9.53;5.50;;;;;;;5.57;75.41;100937.91;254853;1101;114774;-68
2021/09/06 01:35:31;;;;;;;7.10;4.18;;;;;;;5.53;74.74;100935.77;254657;1097;115743;-66
2021/09/06 01:40:33;;;;;;;10.15;7.38;;;;;;;5.45;74.88;100933.19;254151;1097;117990;-67
2021/09/06 01:45:36;;;;;;;13.20;8.03;;;;;;;5.41;75.19;100935.34;254349;1101;117260;-66
2021/09/06 01:50:39;;;;;;;9.10;6.43;;;;;;;5.37;75.06;100928.75;255059;1104;116275;-68
2021/09/06 01:55:43;;;;;;;13.10;5.73;;;;;;;5.34;75.06;100921.98;256171;1101;115839;-64
2021/09/06 02:00:46;;;;;;;10.50;6.63;;;;;;;5.35;75.12;100923.63;255449;1101;116335;-65
2021/09/06 02:05:50;;;;;;;16.98;8.95;;;;;;;5.30;75.36;100925.96;254271;1101;116926;-67
2021/09/06 02:10:54;;;;;;;8.38;5.78;;;;;;;5.25;75.18;100932.75;255149;1101;117119;-67
2021/09/06 02:15:57;;;;;;;8.30;7.20;;;;;;;5.20;75.31;100930.61;257035;1101;118142;-65
2021/09/06 02:21:01;;;;;;;8.38;6.15;;;;;;;5.22;75.44;100941.84;255400;1104;115302;-66
2021/09/06 02:26:04;;;;;;;8.15;4.55;;;;;;;5.23;75.17;100940.03;257311;1103;138845;-63
2021/09/06 02:31:07;;;;;;;4.53;3.90;;;;;;;5.20;75.08;100943.04;255377;1101;116236;-63
2021/09/06 02:36:10;;;;;;;6.18;5.05;;;;;;;5.15;75.14;100940.08;256630;1101;116275;-63
2021/09/06 02:41:14;;;;;;;6.83;3.93;;;;;;;5.10;75.43;100934.47;255527;1096;116251;-66
2021/09/06 02:46:17;;;;;;;3.05;2.83;;;;;;;5.02;75.23;100930.84;255276;1097;115857;-63
2021/09/06 02:51:20;;;;;;;5.83;4.25;;;;;;;5.00;75.93;100930.19;256376;1101;115235;-64
2021/09/06 02:56:24;;;;;;;5.05;4.30;;;;;;;5.03;75.88;100935.14;254432;1101;115731;-67
2021/09/06 03:01:28;;;;;;;6.00;3.95;;;;;;;5.04;75.92;100933.33;254623;1102;115718;-66
2021/09/06 03:06:33;;;;;;;8.03;4.75;;;;;;;4.99;75.76;100928.55;254520;1101;115215;-66
2021/09/06 03:11:38;;;;;;;5.68;3.43;;;;;;;4.93;75.66;100923.92;255322;1101;115873;-66
2021/09/06 03:16:42;;;;;;;2.88;2.68;;;;;;;4.88;75.56;100918.35;254343;1104;115711;-66
2021/09/06 03:21:46;;;;;;;5.13;3.45;;;;;;;4.79;75.54;100915.89;254887;1101;115317;-65
2021/09/06 03:26:48;;;;;;;5.43;4.93;;;;;;;4.76;76.11;100911.77;254252;1104;114655;-66
2021/09/06 03:31:51;;;;;;;6.45;4.15;;;;;;;4.78;75.92;100920.34;254877;1101;115015;-66
2021/09/06 03:36:53;;;;;;;5.73;4.73;;;;;;;4.79;75.78;100913.25;254543;1104;115324;-67
2021/09/06 03:41:56;;;;;;;6.13;4.43;;;;;;;4.74;76.55;100911.10;254663;1101;115127;-66
2021/09/06 03:47:00;;;;;;;4.93;4.43;;;;;;;4.65;76.20;100912.10;255824;1104;114577;-66
2021/09/06 03:52:06;;;;;;;7.45;5.85;;;;;;;4.61;75.99;100911.61;255597;1102;115156;-65
2021/09/06 03:57:11;;;;;;;5.55;4.90;;;;;;;4.61;75.81;100910.78;254780;1101;115906;-68
2021/09/06 04:02:15;;;;;;;6.10;4.60;;;;;;;4.66;76.46;100909.30;255701;1096;115684;-67
2021/09/06 04:07:18;;;;;;;7.88;3.63;;;;;;;4.70;76.27;100915.07;256715;1101;116069;-65
2021/09/06 04:12:21;;;;;;;5.45;4.08;;;;;;;4.66;76.03;100924.31;255483;1103;115422;-64
2021/09/06 04:17:25;;;;;;;6.50;4.13;;;;;;;4.71;76.34;100922.00;257385;1101;115389;-62
2021/09/06 04:22:29;;;;;;;12.43;4.83;;;;;;;4.74;76.37;100925.14;255284;1097;115297;-65
2021/09/06 04:27:33;;;;;;;8.28;3.90;;;;;;;4.80;76.52;100922.82;257086;1104;116381;-63
2021/09/06 04:32:36;;;;;;;4.58;3.63;;;;;;;4.81;76.61;100935.86;257112;1103;115699;-65
2021/09/06 04:37:39;;;;;;;18.17;4.70;;;;;;;4.86;76.54;100932.72;255774;1104;115720;-65
2021/09/06 04:42:42;;;;;;;6.70;3.90;;;;;;;4.90;76.44;100948.05;256319;1101;115371;-65
2021/09/06 04:47:47;;;;;;;6.00;4.23;;;;;;;4.97;76.62;100946.38;255026;1101;115683;-66
2021/09/06 04:52:53;;;;;;;6.20;5.60;;;;;;;5.05;76.96;100946.38;255594;1096;115603;-68
2021/09/06 04:57:56;;;;;;;7.33;6.48;;;;;;;5.22;77.20;100948.95;255035;1101;115625;-66
2021/09/06 05:02:59;;;;;;;10.45;4.75;;;;;;;5.37;77.28;100947.27;254336;1103;114880;-67
2021/09/06 05:08:03;;;;;;;6.43;5.40;;;;;;;5.55;77.15;100953.13;254450;1097;115317;-67
2021/09/06 05:13:06;;;;;;;5.53;5.13;;;;;;;5.71;77.84;100950.41;254287;1104;116172;-67
2021/09/06 05:18:10;;;;;;;7.20;4.20;;;;;;;5.92;78.05;100947.17;254614;1104;115181;-67
2021/09/06 05:23:14;;;;;;;6.03;4.80;;;;;;;6.21;77.93;100945.66;254429;1104;115105;-67
2021/09/06 05:28:18;;;;;;;4.65;3.65;;;;;;;6.46;78.38;100947.11;254271;1104;115346;-66
2021/09/06 05:33:21;;;;;;;8.27;5.20;;;;;;;6.69;78.28;100939.15;254188;1103;115674;-67
2021/09/06 05:38:25;;;;;;;14.48;4.33;;;;;;;6.95;78.02;100944.02;256442;1102;115046;-64
2021/09/06 05:43:29;;;;;;;11.75;5.18;;;;;;;7.20;78.48;100952.53;254414;1101;115908;-66
2021/09/06 05:48:33;;;;;;;10.33;6.60;;;;;;;7.44;78.50;100954.89;254500;1101;114901;-66
2021/09/06 05:53:37;;;;;;;12.05;5.90;;;;;;;7.70;78.87;100954.39;254747;1096;115760;-64
2021/09/06 05:58:41;;;;;;;10.20;6.80;;;;;;;7.96;79.05;100959.17;255660;1102;114752;-65
2021/09/06 06:03:45;;;;;;;9.83;4.65;;;;;;;8.18;78.31;100954.72;254752;1102;118130;-63
2021/09/06 06:08:48;;;;;;;9.23;3.50;;;;;;;8.41;78.32;100958.86;255112;1101;116178;-64
2021/09/06 06:13:52;;;;;;;7.28;4.10;;;;;;;8.64;78.29;100955.98;255724;1097;116870;-64
2021/09/06 06:18:56;;;;;;;4.50;4.00;;;;;;;8.88;78.70;100959.22;257072;1102;115658;-64
2021/09/06 06:24:02;;;;;;;5.30;2.83;;;;;;;9.16;78.45;100959.23;257148;1101;120735;-65
2021/09/06 06:29:05;;;;;;;4.98;2.83;;;;;;;9.39;77.94;100955.27;254501;1097;116228;-65
2021/09/06 06:34:07;;;;;;;2.28;2.00;;;;;;;9.60;77.52;100954.32;257422;1101;115760;-65
2021/09/06 06:39:11;;;;;;;6.68;2.60;;;;;;;9.83;77.47;100958.48;256418;1101;115815;-66
2021/09/06 06:44:15;;;;;;;3.78;2.63;;;;;;;10.09;76.34;100959.38;257398;1101;115479;-65
2021/09/06 06:49:20;;;;;;;5.90;3.03;;;;;;;10.39;76.64;100967.08;256482;1101;115181;-64
2021/09/06 06:54:24;;;;;;;3.90;2.10;;;;;;;10.69;76.78;100975.50;254118;1102;117247;-66
2021/09/06 06:59:28;;;;;;;2.80;1.80;;;;;;;10.90;75.92;100977.13;254743;1101;115711;-67
2021/09/06 07:04:31;;;;;;;4.08;2.10;;;;;;;11.11;75.13;100975.04;254740;1101;117298;-67
2021/09/06 07:09:35;;;;;;;7.48;2.25;;;;;;;11.34;74.95;100979.91;254747;1097;117000;-66
2021/09/06 07:14:39;;;;;;;7.00;3.23;;;;;;;11.84;74.60;100984.72;254596;1102;116450;-65
2021/09/06 07:19:42;;;;;;;2.30;2.08;;;;;;;12.94;74.23;100988.70;254401;1101;116419;-66
2021/09/06 07:24:46;;;;;;;5.93;2.33;;;;;;;13.87;74.26;100991.23;254850;1097;117849;-67
2021/09/06 07:29:49;;;;;;;2.68;1.70;;;;;;;14.47;72.60;100992.06;254720;1102;116609;-66
2021/09/06 07:34:54;;;;;;;2.03;1.85;;;;;;;14.85;71.93;100991.66;254104;1102;115809;-64
2021/09/06 07:40:03;;;;;;;2.80;1.95;;;;;;;15.17;71.18;100992.14;254321;1099;116282;-66
2021/09/06 07:45:09;;;;;;;4.30;1.63;;;;;;;15.45;70.00;100988.72;254454;1101;117075;-65
2021/09/06 07:50:14;;;;;;;5.40;1.70;;;;;;;15.59;69.80;100992.83;254388;1101;115724;-66
2021/09/06 07:55:19;;;;;;;1.80;1.70;;;;;;;15.60;68.51;100993.62;254408;1101;116060;-66
2021/09/06 08:00:23;;;;;;;1.78;1.68;;;;;;;15.66;67.93;101001.55;254871;1104;116082;-64
2021/09/06 08:05:29;;;;;;;2.33;1.48;;;;;;;15.71;67.37;100990.09;255373;1101;117960;-64
2021/09/06 08:10:33;;;;;;;1.65;1.45;;;;;;;15.80;66.82;101000.25;254594;1101;117785;-63
2021/09/06 08:15:38;;;;;;;3.97;1.73;;;;;;;15.89;65.26;100999.88;255920;1097;116188;-64
2021/09/06 08:20:43;;;;;;;1.93;1.35;;;;;;;16.05;64.64;100999.92;255964;1097;116326;-64
2021/09/06 08:25:46;;;;;;;7.85;1.65;;;;;;;16.13;62.89;101009.48;256913;1104;117430;-65
2021/09/06 08:30:49;;;;;;;4.13;1.40;;;;;;;16.47;63.88;101002.31;257251;1101;117994;-64
2021/09/06 08:35:53;;;;;;;1.15;1.05;;;;;;;16.82;62.65;101004.78;257252;1102;115503;-66
2021/09/06 08:40:57;;;;;;;1.40;1.30;;;;;;;17.09;61.19;101013.86;257284;1102;115380;-64
2021/09/06 08:46:01;;;;;;;2.13;1.48;;;;;;;17.46;61.74;101010.58;257474;1101;115911;-64
2021/09/06 08:51:05;;;;;;;4.35;1.85;;;;;;;17.93;61.18;101007.44;257034;1095;119261;-63
2021/09/06 08:56:08;;;;;;;2.03;1.28;;;;;;;18.29;60.91;101014.86;254210;1104;117762;-65
2021/09/06 09:01:40;;;;;;;1.00;0.95;;;;;;;18.61;59.99;101006.82;255706;1101;117594;-65
2021/09/06 09:06:48;;;;;;;1.75;1.18;;;;;;;18.73;58.05;101001.23;255790;1102;116506;-65
2021/09/06 09:12:12;;;;;;;1.40;1.30;;;;;;;18.96;57.33;100998.16;255714;1104;117376;-65
2021/09/06 09:17:16;;;;;;;4.23;1.40;;;;;;;19.22;56.70;100995.64;254394;1104;116364;-65
2021/09/06 09:22:33;;;;;;;2.40;1.40;;;;;;;19.37;56.36;100998.42;254617;1097;116983;-66
2021/09/06 09:27:39;;;;;;;2.03;1.30;;;;;;;19.59;54.76;100996.39;254803;1101;115403;-65
2021/09/06 09:32:43;;;;;;;1.80;1.33;;;;;;;19.59;54.20;100990.98;254260;1102;115738;-65
2021/09/06 09:37:47;;;;;;;3.45;1.25;;;;;;;19.91;54.79;100987.31;255557;1101;115261;-65
2021/09/06 09:42:51;;;;;;;2.93;1.48;;;;;;;20.26;54.57;100989.29;254717;1101;117012;-67
2021/09/06 09:47:58;;;;;;;1.83;1.30;;;;;;;20.42;54.09;100988.28;254774;1101;117124;-64
2021/09/06 09:53:02;;;;;;;1.10;1.00;;;;;;;20.66;53.52;100983.13;254533;1101;116150;-65
2021/09/06 09:58:07;;;;;;;1.30;1.20;;;;;;;20.85;52.50;100981.48;255173;1101;116563;-66
2021/09/06 10:03:12;;;;;;;1.40;1.40;;;;;;;21.02;52.07;100965.75;254432;1102;115935;-65
2021/09/06 10:08:17;;;;;;;1.28;1.05;;;;;;;21.23;51.56;100965.73;255656;1103;115378;-66
2021/09/06 10:13:25;;;;;;;;;;;;;;;21.37;51.05;100961.36;255675;1102;116330;-66
2021/09/06 10:18:39;;;;;;;1.70;0.97;;;;;;;21.36;49.71;100959.73;258126;1102;104323;-66
2021/09/06 10:23:47;;;;;;;1.75;1.18;;;;;;;21.34;49.56;100956.48;254965;1102;118056;-66
2021/09/06 10:28:51;;;;;;;2.70;1.85;;;;;;;21.43;49.13;100954.80;256024;1097;116158;-67
2021/09/06 10:33:59;;;;;;;4.80;1.73;;;;;;;21.47;48.95;100945.84;256617;1101;114941;-67
2021/09/06 10:39:07;;;;;;;2.33;1.30;;;;;;;21.43;48.05;100950.19;257126;1101;136395;-69
2021/09/06 10:44:10;;;;;;;1.83;1.65;;;;;;;21.50;48.46;100958.84;255693;1103;115555;-67
2021/09/06 10:49:13;;;;;;;6.95;2.25;;;;;;;21.63;46.61;100943.88;256885;1101;115481;-68
2021/09/06 10:54:16;;;;;;;1.70;1.38;;;;;;;21.56;46.63;100943.37;257297;1101;120086;-66
2021/09/06 10:59:25;;;;;;;2.53;1.68;;;;;;;21.64;46.15;100937.37;255486;1102;115376;-67
2021/09/06 11:04:30;;;;;;;1.80;1.50;;;;;;;21.58;46.60;100935.77;256409;1101;115437;-67
2021/09/06 11:09:37;;;;;;;1.70;1.60;;;;;;;21.58;45.92;100935.77;254707;1104;115360;-67
2021/09/06 11:14:44;;;;;;;1.45;1.38;;;;;;;21.69;45.96;100929.20;254264;1104;115737;-66
2021/09/06 11:19:49;;;;;;;2.53;2.05;;;;;;;21.76;44.90;100935.11;255085;1102;115524;-66
2021/09/06 11:24:58;;;;;;;1.60;1.45;;;;;;;21.82;45.45;100925.86;254516;1104;136615;-66
2021/09/06 11:30:03;;;;;;;1.50;1.40;;;;;;;21.67;45.06;100922.43;255298;1103;116405;-66
2021/09/06 11:35:09;;;;;;;2.63;1.73;;;;;;;21.54;44.23;100915.70;254277;1103;115889;-67
2021/09/06 11:40:13;;;;;;;2.10;1.50;;;;;;;21.56;43.52;100920.84;254425;1096;116524;-66
2021/09/06 11:45:18;;;;;;;2.67;1.50;;;;;;;21.62;44.19;100909.70;254245;1101;116490;-66
2021/09/06 11:50:24;;;;;;;4.85;1.98;;;;;;;21.60;43.77;100908.35;254257;1102;116924;-69
2021/09/06 11:55:55;;;;;;;3.15;1.98;;;;;;;21.52;43.18;100904.31;254066;1103;119074;-68
2021/09/06 12:01:18;;;;;;;2.10;1.53;;;;;;;21.45;44.08;100906.52;254018;1097;116439;-68
2021/09/06 12:06:26;;;;;;;1.58;1.45;;;;;;;21.51;44.15;100902.69;254287;1103;116086;-67
2021/09/06 12:11:41;;;;;;;4.98;2.90;;;;;;;21.54;43.54;100896.70;255014;1104;115862;-68
2021/09/06 12:16:44;;;;;;;5.00;2.40;;;;;;;21.54;43.86;100883.14;254434;1104;116129;-68
2021/09/06 12:21:49;;;;;;;1.85;1.63;;;;;;;21.58;44.23;100877.97;253961;1104;116138;-68
2021/09/06 12:26:53;;;;;;;3.15;2.00;;;;;;;21.51;44.15;100881.80;255200;1096;115941;-68
2021/09/06 12:31:56;;;;;;;2.00;1.70;;;;;;;21.56;43.18;100872.83;256449;1104;115691;-68
2021/09/06 12:37:00;;;;;;;2.50;2.18;;;;;;;21.41;42.56;100867.47;257247;1104;115499;-69
2021/09/06 12:42:04;;;;;;;2.80;1.18;;;;;;;21.38;43.38;100862.63;255794;1101;117793;-69
2021/09/06 12:47:07;;;;;;;4.95;1.78;;;;;;;21.24;42.80;100858.88;257164;1101;115887;-68
2021/09/06 12:52:10;;;;;;;2.83;1.95;;;;;;;21.38;43.29;100862.63;255078;1101;115026;-70
2021/09/06 12:57:13;;;;;;;1.90;1.73;;;;;;;21.43;43.42;100857.96;254329;1102;115891;-69
2021/09/06 13:02:16;;;;;;;3.78;1.48;;;;;;;21.48;43.45;100854.41;255796;1101;115750;-69
2021/09/06 13:07:19;;;;;;;2.18;1.98;;;;;;;21.44;43.40;100846.02;254324;1102;115300;-68
2021/09/06 13:12:22;;;;;;;2.33;1.63;;;;;;;21.53;43.29;100853.58;254502;1101;118416;-68
2021/09/06 13:17:25;;;;;;;3.45;2.05;;;;;;;21.41;42.92;100840.34;254237;1101;116179;-68
2021/09/06 13:22:28;;;;;;;3.90;2.00;;;;;;;21.24;43.43;100850.75;254402;1104;115239;-66
2021/09/06 13:27:34;;;;;;;1.70;1.60;;;;;;;21.24;43.08;100837.19;254310;1101;115002;-67
2021/09/06 13:32:39;;;;;;;2.08;1.60;;;;;;;21.30;42.76;100825.23;254219;1101;115609;-67
2021/09/06 13:37:42;;;;;;;1.55;1.45;;;;;;;21.25;43.64;100830.67;254651;1101;115919;-67
2021/09/06 13:42:49;;;;;;;3.67;1.37;;;;;;;21.19;43.17;100819.01;254283;1104;115742;-67
2021/09/06 13:47:54;;;;;;;3.18;1.90;;;;;;;21.17;43.40;100829.32;254121;1104;117757;-67
2021/09/06 13:52:57;;;;;;;2.10;1.93;;;;;;;21.11;42.99;100823.10;254083;1096;116906;-69
2021/09/06 13:58:00;;;;;;;3.47;1.80;;;;;;;21.12;43.23;100819.30;254527;1103;115560;-66
2021/09/06 14:03:04;;;;;;;1.50;1.05;;;;;;;21.00;43.12;100829.67;254101;1103;115456;-66
2021/09/06 14:08:10;;;;;;;1.68;1.40;;;;;;;20.79;43.26;100820.78;254303;1101;116738;-67
2021/09/06 14:13:14;;;;;;;4.03;1.37;;;;;;;20.70;43.57;100811.63;254326;1101;115079;-67
2021/09/06 14:18:17;;;;;;;6.77;1.97;;;;;;;20.65;43.55;100816.24;254294;1101;115465;-67
2021/09/06 14:23:21;;;;;;;1.93;1.70;;;;;;;20.65;43.52;100813.53;254156;1101;115620;-68
2021/09/06 14:28:25;;;;;;;1.55;1.45;;;;;;;20.59;43.19;100818.15;254163;1104;115383;-68
2021/09/06 14:33:30;;;;;;;1.83;1.45;;;;;;;20.54;43.47;100810.03;254197;1104;116179;-67
2021/09/06 14:38:34;;;;;;;4.35;2.18;;;;;;;20.44;43.97;100813.59;255802;1101;115439;-67
2021/09/06 14:43:37;;;;;;;3.60;1.55;;;;;;;20.38;43.97;100809.27;257182;1103;115726;-68
2021/09/06 14:48:48;;;;;;;2.15;1.63;;;;;;;20.31;43.57;100810.59;256849;1103;117916;-67
2021/09/06 14:53:53;;;;;;;2.75;2.03;;;;;;;20.25;43.91;100806.26;256408;1102;115833;-67
2021/09/06 14:58:57;;;;;;;3.60;1.50;;;;;;;20.18;43.89;100798.41;255853;1101;136806;-68
2021/09/06 15:04:01;;;;;;;2.05;1.80;;;;;;;20.13;43.73;100811.98;257143;1101;115549;-69
2021/09/06 15:09:04;;;;;;;1.63;1.53;;;;;;;20.08;44.03;100791.13;254022;1103;116934;-68
2021/09/06 15:14:07;;;;;;;6.23;2.45;;;;;;;20.00;44.12;100790.86;254067;1103;115456;-67
2021/09/06 15:19:10;;;;;;;2.70;1.70;;;;;;;19.91;44.15;100798.70;254154;1097;117916;-68
2021/09/06 15:24:14;;;;;;;1.47;1.23;;;;;;;19.80;43.92;100781.67;255780;1104;120048;-66
2021/09/06 15:29:17;;;;;;;6.18;1.60;;;;;;;19.66;44.68;100779.75;254615;1104;117429;-66
2021/09/06 15:34:23;;;;;;;4.37;1.83;;;;;;;19.53;45.18;100788.41;254314;1097;116239;-67
2021/09/06 15:39:27;;;;;;;5.98;2.35;;;;;;;19.35;45.98;100779.68;254175;1102;116613;-68
2021/09/06 15:44:30;;;;;;;1.50;1.15;;;;;;;19.14;45.98;100784.23;254396;1101;116316;-69
2021/09/06 15:49:33;;;;;;;2.18;1.48;;;;;;;18.97;47.25;100775.52;253966;1096;117046;-69
2021/09/06 15:54:38;;;;;;;1.43;1.33;;;;;;;18.80;47.71;100774.92;254100;1104;116392;-68
2021/09/06 15:59:41;;;;;;;1.35;1.25;;;;;;;18.60;48.39;100782.94;254156;1101;115835;-68
2021/09/06 16:04:46;;;;;;;5.37;2.53;;;;;;;18.39;49.30;100781.95;254327;1101;116467;-68
2021/09/06 16:09:51;;;;;;;3.40;1.80;;;;;;;18.18;50.01;100783.72;255348;1104;116016;-65
2021/09/06 16:14:54;;;;;;;2.53;1.83;;;;;;;17.99;50.64;100787.91;254720;1098;116418;-67
2021/09/06 16:19:57;;;;;;;2.40;1.00;;;;;;;17.78;51.52;100774.23;254223;1104;116695;-67
2021/09/06 16:25:00;;;;;;;7.17;2.40;;;;;;;17.58;52.55;100776.73;254813;1096;115951;-67
2021/09/06 16:30:04;;;;;;;2.03;1.60;;;;;;;17.34;53.48;100772.72;254946;1103;115800;-66
2021/09/06 16:35:11;;;;;;;5.88;1.58;;;;;;;17.09;53.69;100771.39;255719;1101;115567;-67
2021/09/06 16:40:14;;;;;;;1.28;1.20;;;;;;;16.83;54.36;100769.44;254198;1101;117867;-67
2021/09/06 16:45:18;;;;;;;7.23;1.45;;;;;;;16.55;54.91;100767.70;257274;1101;115461;-68
2021/09/06 16:50:24;;;;;;;2.15;1.58;;;;;;;16.30;55.75;100770.05;257134;1103;115623;-68
2021/09/06 16:55:28;;;;;;;2.60;1.78;;;;;;;16.09;56.69;100760.88;257102;1102;115808;-69
2021/09/06 17:00:33;;;;;;;5.53;1.40;;;;;;;15.85;56.88;100759.42;256123;1104;116686;-70
2021/09/06 17:05:36;;;;;;;3.63;1.48;;;;;;;15.63;57.23;100765.50;254222;1104;117169;-70
2021/09/06 17:10:38;;;;;;;9.25;1.88;;;;;;;15.41;57.75;100759.17;257210;1101;115851;-69
2021/09/06 17:15:41;;;;;;;5.43;1.73;;;;;;;15.23;58.09;100760.20;256485;1101;115457;-69
2021/09/06 17:20:44;;;;;;;2.93;1.73;;;;;;;14.97;58.38;100750.04;254085;1097;118537;-69
2021/09/06 17:25:47;;;;;;;1.75;1.20;;;;;;;14.58;58.94;100748.97;254499;1096;116311;-69
2021/09/06 17:30:50;;;;;;;2.20;2.00;;;;;;;14.18;59.33;100749.66;254258;1101;116512;-68
2021/09/06 17:35:53;;;;;;;3.73;2.33;;;;;;;13.99;60.11;100753.52;254272;1101;116215;-66
2021/09/06 17:40:56;;;;;;;4.30;1.60;;;;;;;13.86;60.28;100753.73;254343;1101;116450;-65
2021/09/06 17:45:59;;;;;;;4.25;2.25;;;;;;;13.75;60.67;100744.64;255416;1101;115800;-66
2021/09/06 17:51:02;;;;;;;12.38;3.68;;;;;;;13.55;60.93;100749.48;254164;1104;115753;-67
2021/09/06 17:56:05;;;;;;;8.43;4.00;;;;;;;13.41;61.60;100762.27;255730;1103;116158;-66
2021/09/06 18:01:08;;;;;;;6.00;2.95;;;;;;;13.22;62.12;100763.34;254801;1102;117840;-66
2021/09/06 18:06:11;;;;;;;5.63;2.48;;;;;;;12.91;62.35;100773.18;254192;1101;115595;-65
2021/09/06 18:11:14;;;;;;;5.97;2.97;;;;;;;12.60;62.67;100765.31;254663;1101;116252;-67
2021/09/06 18:16:17;;;;;;;14.95;5.48;;;;;;;12.40;63.70;100766.36;255484;1104;116550;-66
2021/09/06 18:21:20;;;;;;;12.77;5.80;;;;;;;12.27;63.82;100766.48;254116;1102;115667;-65
2021/09/06 18:26:23;;;;;;;16.15;11.95;;;;;;;12.17;64.69;100771.53;254368;1102;115592;-66
2021/09/06 18:31:28;;;;;;;55.40;15.75;;;;;;;12.08;64.85;100773.66;254266;1103;116701;-65
2021/09/06 18:36:31;;;;;;;36.58;14.40;;;;;;;12.02;65.15;100773.70;254522;1101;116458;-65
2021/09/06 18:41:34;;;;;;;32.03;14.00;;;;;;;11.83;65.40;100769.36;254507;1102;115875;-66
2021/09/06 18:46:38;;;;;;;46.73;14.40;;;;;;;11.76;65.72;100770.22;255428;1101;116146;-65
2021/09/06 18:51:42;;;;;;;30.30;13.28;;;;;;;11.74;66.31;100766.09;256403;1103;116681;-65
2021/09/06 18:56:46;;;;;;;38.58;15.08;;;;;;;11.61;66.01;100767.02;256906;1102;115446;-66
2021/09/06 19:01:51;;;;;;;29.68;18.58;;;;;;;11.57;66.55;100767.67;257133;1101;116458;-65
2021/09/06 19:06:57;;;;;;;34.28;11.68;;;;;;;11.62;66.23;100770.48;257145;1102;115838;-66
2021/09/06 19:12:05;;;;;;;24.33;11.35;;;;;;;11.58;66.67;100762.11;256789;1104;116683;-66
2021/09/06 19:17:09;;;;;;;16.40;11.25;;;;;;;11.54;66.83;100762.75;256065;1103;117945;-67
2021/09/06 19:22:17;;;;;;;35.28;13.98;;;;;;;11.33;67.08;100764.72;255248;1102;115668;-66
2021/09/06 19:27:21;;;;;;;22.88;12.05;;;;;;;11.19;67.18;100767.69;254386;1102;115634;-65
2021/09/06 19:32:24;;;;;;;23.95;14.93;;;;;;;11.09;67.45;100768.95;256074;1102;117068;-67
2021/09/06 19:37:28;;;;;;;37.88;21.13;;;;;;;11.08;67.61;100767.31;254786;1101;115732;-66
2021/09/06 19:42:32;;;;;;;32.95;18.60;;;;;;;10.98;67.88;100774.98;255143;1101;115698;-65
2021/09/06 19:47:36;;;;;;;36.05;20.15;;;;;;;10.91;67.84;100781.36;255131;1101;116059;-66
2021/09/06 19:52:40;;;;;;;39.73;22.83;;;;;;;10.73;68.23;100776.69;255054;1097;115694;-66
2021/09/06 19:57:44;;;;;;;32.43;17.00;;;;;;;10.56;68.34;100776.34;254435;1104;116057;-66
2021/09/06 20:02:48;;;;;;;20.60;10.98;;;;;;;10.53;68.71;100782.09;255180;1101;116093;-67
2021/09/06 20:07:52;;;;;;;20.93;12.60;;;;;;;10.53;68.88;100775.94;254291;1103;115658;-66
2021/09/06 20:12:57;;;;;;;21.98;11.83;;;;;;;10.51;69.07;100777.99;254704;1103;115835;-66
2021/09/06 20:18:01;;;;;;;14.53;10.18;;;;;;;10.48;69.21;100778.41;255548;1101;116102;-67
2021/09/06 20:23:06;;;;;;;24.63;12.55;;;;;;;10.49;69.58;100772.87;255208;1097;116266;-66
2021/09/06 20:28:09;;;;;;;25.70;15.75;;;;;;;10.44;69.83;100768.16;254890;1102;115714;-66
2021/09/06 20:33:13;;;;;;;42.28;18.38;;;;;;;10.38;69.80;100773.53;255282;1101;116206;-66
2021/09/06 20:38:17;;;;;;;32.95;18.45;;;;;;;10.35;69.84;100773.94;255151;1101;115956;-66
2021/09/06 20:43:20;;;;;;;36.98;21.93;;;;;;;10.36;69.97;100779.06;256169;1101;115940;-66
2021/09/06 20:48:24;;;;;;;35.65;19.40;;;;;;;10.33;70.30;100774.14;254676;1101;116775;-67
2021/09/06 20:53:27;;;;;;;39.88;28.18;;;;;;;10.23;69.91;100771.08;254415;1101;116322;-65
2021/09/06 20:58:29;;;;;;;33.33;22.40;;;;;;;10.14;70.30;100780.27;254445;1101;116423;-67
2021/09/06 21:03:32;;;;;;;32.03;21.43;;;;;;;10.14;70.38;100777.60;256320;1101;116473;-65
2021/09/06 21:08:38;;;;;;;31.33;20.75;;;;;;;10.13;70.77;100774.13;257149;1102;117104;-66
2021/09/06 21:13:42;;;;;;;18.43;13.80;;;;;;;10.03;70.59;100770.25;257471;1101;117453;-65
2021/09/06 21:18:45;;;;;;;16.50;9.85;;;;;;;9.95;70.31;100771.27;257386;1102;116519;-67
2021/09/06 21:23:49;;;;;;;11.25;9.55;;;;;;;10.00;71.54;100768.81;255076;1101;116840;-67
2021/09/06 21:28:55;;;;;;;22.88;10.18;;;;;;;10.03;71.62;100773.73;257319;1101;116483;-66
2021/09/06 21:33:58;;;;;;;16.05;9.30;;;;;;;9.95;71.16;100770.45;254506;1101;116439;-66
2021/09/06 21:39:05;;;;;;;23.60;14.90;;;;;;;9.88;72.31;100766.97;254278;1102;116973;-67
2021/09/06 21:44:10;;;;;;;13.73;9.10;;;;;;;9.91;72.15;100763.89;255662;1097;115666;-65
2021/09/06 21:49:14;;;;;;;12.20;8.40;;;;;;;9.98;71.87;100770.05;255579;1104;115756;-65
2021/09/06 21:54:17;;;;;;;19.20;13.95;;;;;;;10.02;72.26;100765.95;254724;1103;115787;-64
2021/09/06 21:59:21;;;;;;;17.25;14.15;;;;;;;9.97;72.06;100763.90;254429;1096;176831;-65
2021/09/06 22:04:25;;;;;;;35.30;24.87;;;;;;;9.94;72.39;100760.83;255315;1104;116593;-65
2021/09/06 22:09:28;;;;;;;30.90;16.03;;;;;;;9.96;72.88;100758.78;254007;1101;118317;-66
2021/09/06 22:14:31;;;;;;;16.63;12.00;;;;;;;9.91;72.91;100747.91;255626;1101;116510;-65
2021/09/06 22:19:35;;;;;;;21.63;11.70;;;;;;;9.89;72.87;100755.29;254489;1100;115971;-67
2021/09/06 22:24:42;;;;;;;35.57;23.50;;;;;;;9.86;73.10;100742.38;254730;1097;116456;-67
2021/09/06 22:29:46;;;;;;;31.73;19.03;;;;;;;9.79;73.65;100739.71;254474;1101;116333;-65
2021/09/06 22:34:49;;;;;;;13.68;10.35;;;;;;;9.79;73.49;100731.72;255204;1101;117621;-69
2021/09/06 22:39:52;;;;;;;13.98;8.03;;;;;;;9.87;72.99;100736.03;254211;1101;117068;-66
2021/09/06 22:44:55;;;;;;;14.05;9.83;;;;;;;9.85;73.70;100733.57;255354;1101;115981;-66
2021/09/06 22:49:59;;;;;;;24.87;13.33;;;;;;;9.87;73.24;100744.84;254740;1096;117014;-70
2021/09/06 22:55:04;;;;;;;21.63;11.65;;;;;;;9.97;73.61;100747.09;254142;1097;116574;-69
2021/09/06 23:00:09;;;;;;;17.03;11.68;;;;;;;9.88;73.32;100745.66;254267;1102;116586;-67
2021/09/06 23:05:13;;;;;;;25.38;12.38;;;;;;;9.84;73.84;100739.10;254345;1096;116195;-67